createdAt,value
2023-05-12T00:00:58.394Z,37.06
2023-05-12T00:06:03.754Z,37.32
2023-05-12T00:11:05.671Z,37.49
2023-05-12T00:16:07.758Z,37.33
2023-05-12T00:21:09.694Z,37.28
2023-05-12T00:26:11.558Z,37.39
2023-05-12T00:31:14.433Z,37.48
2023-05-12T00:36:16.374Z,37.50
2023-05-12T00:41:18.522Z,37.63
2023-05-12T00:46:21.404Z,37.93
2023-05-12T00:51:24.035Z,38.29
2023-05-12T00:56:26.069Z,38.15
2023-05-12T01:01:28.380Z,38.28
2023-05-12T01:06:39.924Z,38.57
2023-05-12T01:11:43.342Z,38.69
2023-05-12T01:16:53.186Z,38.37
2023-05-12T01:21:55.820Z,38.41
2023-05-12T01:26:58.697Z,39.09
2023-05-12T01:32:00.789Z,39.16
2023-05-12T01:37:02.830Z,39.42
2023-05-12T01:42:05.950Z,39.49
2023-05-12T01:47:10.061Z,39.50
2023-05-12T01:52:13.990Z,39.79
2023-05-12T01:57:16.194Z,39.83
2023-05-12T02:02:18.564Z,39.91
2023-05-12T02:07:20.503Z,39.80
2023-05-12T02:12:22.820Z,39.90
2023-05-12T02:17:25.252Z,39.98
2023-05-12T02:22:27.375Z,39.94
2023-05-12T02:27:32.552Z,39.85
2023-05-12T02:32:34.779Z,39.60
2023-05-12T02:37:36.919Z,39.96
2023-05-12T02:42:40.445Z,40.09
2023-05-12T02:47:42.468Z,40.10
2023-05-12T02:52:45.090Z,40.02
2023-05-12T02:57:47.256Z,40.18
2023-05-12T03:02:49.141Z,40.37
2023-05-12T03:07:51.124Z,40.23
2023-05-12T03:12:52.962Z,40.46
2023-05-12T03:17:55.718Z,40.54
2023-05-12T03:22:57.878Z,40.65
2023-05-12T03:27:59.952Z,40.47
2023-05-12T03:33:01.989Z,40.72
2023-05-12T03:38:04.998Z,40.55
2023-05-12T03:43:06.882Z,40.19
2023-05-12T03:48:08.863Z,40.16
2023-05-12T03:53:10.905Z,40.37
2023-05-12T03:58:12.818Z,40.54
2023-05-12T04:03:15.615Z,40.44
2023-05-12T04:08:17.579Z,41.03
2023-05-12T04:13:19.445Z,41.16
2023-05-12T04:18:21.441Z,41.09
2023-05-12T04:23:23.690Z,41.22
2023-05-12T04:28:25.646Z,41.15
2023-05-12T04:33:28.314Z,40.93
2023-05-12T04:38:30.533Z,41.01
2023-05-12T04:48:42.138Z,41.43
2023-05-12T04:53:44.118Z,41.34
2023-05-12T04:58:48.353Z,41.41
2023-05-12T05:03:50.538Z,41.52
2023-05-12T05:08:53.282Z,41.62
2023-05-12T05:13:55.217Z,41.74
2023-05-12T05:18:58.571Z,41.82
2023-05-12T05:24:00.876Z,41.81
2023-05-12T05:29:04.832Z,41.80
2023-05-12T05:34:07.876Z,41.80
2023-05-12T05:39:10.554Z,41.67
2023-05-12T05:44:12.748Z,41.73
2023-05-12T05:49:14.955Z,41.69
2023-05-12T05:54:17.281Z,41.83
2023-05-12T05:59:20.524Z,41.71
2023-05-12T06:04:23.449Z,41.82
2023-05-12T06:09:25.715Z,42.16
2023-05-12T06:14:27.665Z,42.26
2023-05-12T06:19:30.317Z,42.21
2023-05-12T06:24:32.153Z,42.01
2023-05-12T06:29:34.316Z,41.96
2023-05-12T06:34:36.211Z,42.22
2023-05-12T06:39:38.418Z,42.30
2023-05-12T06:44:42.023Z,42.15
2023-05-12T06:49:44.406Z,41.80
2023-05-12T06:54:51.051Z,41.46
2023-05-12T06:59:54.010Z,41.32
2023-05-12T07:04:56.836Z,41.09
2023-05-12T07:09:59.168Z,41.10
2023-05-12T07:15:02.137Z,41.05
2023-05-12T07:20:05.922Z,40.66
2023-05-12T07:25:08.313Z,40.37
2023-05-12T07:30:11.328Z,39.92
2023-05-12T07:35:13.192Z,39.36
2023-05-12T07:40:15.533Z,39.06
2023-05-12T07:45:23.080Z,38.64
2023-05-12T07:50:25.030Z,38.12
2023-05-12T07:55:26.942Z,37.59
2023-05-12T08:00:29.171Z,36.97
2023-05-12T08:05:31.390Z,36.82
2023-05-12T08:10:33.244Z,36.77
2023-05-12T08:15:35.218Z,36.54
2023-05-12T08:20:38.669Z,36.31
2023-05-12T08:25:41.353Z,36.01
2023-05-12T08:30:45.257Z,35.54
2023-05-12T08:35:47.203Z,34.89
2023-05-12T08:41:10.999Z,34.32
2023-05-12T08:46:13.550Z,34.24
2023-05-12T08:51:15.924Z,34.03
2023-05-12T09:01:26.699Z,33.30
2023-05-12T09:06:29.820Z,32.90
2023-05-12T09:11:32.528Z,32.71
2023-05-12T09:16:40.051Z,32.22
2023-05-12T09:21:42.661Z,32.13
2023-05-12T09:26:54.589Z,31.64
2023-05-12T09:32:02.562Z,31.13
2023-05-12T09:37:06.958Z,30.80
2023-05-12T09:42:13.286Z,30.92
2023-05-12T09:47:16.389Z,30.47
2023-05-12T09:52:23.026Z,30.57
2023-05-12T09:57:26.626Z,30.44
2023-05-12T10:02:28.701Z,29.37
2023-05-12T10:07:31.436Z,29.66
2023-05-12T10:12:35.698Z,29.88
2023-05-12T10:17:37.969Z,29.53
2023-05-12T10:22:41.127Z,29.13
2023-05-12T10:27:44.420Z,28.44
2023-05-12T10:32:47.044Z,28.47
2023-05-12T10:37:49.788Z,28.10
2023-05-12T10:42:52.873Z,28.27
2023-05-12T10:48:06.199Z,27.26
2023-05-12T10:53:11.458Z,27.08
2023-05-12T10:58:13.659Z,27.20
2023-05-12T11:03:18.890Z,27.17
2023-05-12T11:13:25.323Z,27.09
2023-05-12T11:18:27.241Z,27.22
2023-05-12T11:23:29.685Z,26.92
2023-05-12T11:28:41.370Z,26.55
2023-05-12T11:33:43.317Z,26.72
2023-05-12T11:38:51.741Z,26.63
2023-05-12T11:43:53.657Z,26.99
2023-05-12T11:48:59.899Z,26.44
2023-05-12T11:54:01.948Z,26.65
2023-05-12T11:59:03.834Z,26.09
2023-05-12T12:04:06.342Z,26.27
2023-05-12T12:09:08.726Z,26.13
2023-05-12T12:14:10.606Z,26.11
2023-05-12T12:19:12.567Z,25.90
2023-05-12T12:24:14.733Z,26.39
2023-05-12T12:29:17.342Z,26.67
2023-05-12T12:34:19.390Z,26.62
2023-05-12T12:39:23.290Z,27.11
2023-05-12T12:44:25.196Z,27.27
2023-05-12T12:49:27.031Z,27.23
2023-05-12T12:54:29.480Z,27.41
2023-05-12T12:59:31.327Z,27.94
2023-05-12T13:04:33.739Z,27.90
2023-05-12T13:09:35.626Z,28.21
2023-05-12T13:14:37.467Z,28.41
2023-05-12T13:19:39.328Z,28.46
2023-05-12T13:24:41.545Z,28.67
2023-05-12T13:29:47.365Z,28.90
2023-05-12T13:34:49.317Z,28.56
2023-05-12T13:39:51.271Z,28.53
2023-05-12T13:44:53.127Z,28.73
2023-05-12T13:49:56.610Z,28.92
2023-05-12T13:54:58.512Z,29.06
2023-05-12T14:00:00.895Z,29.28
2023-05-12T14:05:02.776Z,29.37
2023-05-12T14:10:04.926Z,29.66
2023-05-12T14:15:23.546Z,29.29
2023-05-12T14:20:29.860Z,29.32
2023-05-12T14:25:31.832Z,29.56
2023-05-12T14:30:35.332Z,29.92
2023-05-12T14:35:37.265Z,30.06
2023-05-12T14:40:40.400Z,30.27
2023-05-12T14:45:42.516Z,30.46
2023-05-12T14:50:44.352Z,30.70
2023-05-12T14:55:46.343Z,30.00
2023-05-12T15:00:48.684Z,29.46
2023-05-12T15:10:55.480Z,29.86
2023-05-12T15:15:57.367Z,29.90
2023-05-12T15:20:59.282Z,29.87
2023-05-12T15:26:15.416Z,29.67
2023-05-12T15:31:22.952Z,29.77
2023-05-12T15:36:24.864Z,29.68
2023-05-12T15:41:26.788Z,29.92
2023-05-12T15:46:29.006Z,29.98
2023-05-12T15:51:31.491Z,30.03
2023-05-12T15:56:33.308Z,30.07
2023-05-12T16:01:35.393Z,29.96
2023-05-12T16:06:37.216Z,29.88
2023-05-12T16:11:39.649Z,30.29
2023-05-12T16:16:48.355Z,30.61
2023-05-12T16:21:50.341Z,31.21
2023-05-12T16:26:52.204Z,31.43
2023-05-12T16:31:54.116Z,31.61
2023-05-12T16:36:55.955Z,32.08
2023-05-12T16:41:58.427Z,32.55
2023-05-12T16:47:00.235Z,32.83
2023-05-12T16:52:02.232Z,33.71
2023-05-12T16:57:04.243Z,34.44
2023-05-12T17:02:06.443Z,35.14
2023-05-12T17:07:08.633Z,35.21
2023-05-12T17:12:11.097Z,35.51
2023-05-12T17:17:13.370Z,35.48
2023-05-12T17:22:16.050Z,35.49
2023-05-12T17:27:18.359Z,36.28
2023-05-12T17:32:20.314Z,35.89
2023-05-12T17:37:22.804Z,35.54
2023-05-12T17:42:24.787Z,35.43
2023-05-12T17:47:30.254Z,35.43
2023-05-12T17:52:32.722Z,35.17
2023-05-12T17:57:34.798Z,35.22
2023-05-12T18:02:38.331Z,35.18
2023-05-12T18:07:40.404Z,35.49
2023-05-12T18:12:42.269Z,35.55
2023-05-12T18:17:44.247Z,35.48
2023-05-12T18:22:46.491Z,35.68
2023-05-12T18:27:49.033Z,35.71
2023-05-12T18:32:51.140Z,35.65
2023-05-12T18:37:53.259Z,35.35
2023-05-12T18:42:55.087Z,35.74
2023-05-12T18:47:57.043Z,35.99
2023-05-12T18:52:58.961Z,36.06
2023-05-12T18:58:00.792Z,36.41
2023-05-12T19:03:03.191Z,36.53
2023-05-12T19:08:05.723Z,36.61
2023-05-12T19:13:08.175Z,36.79
2023-05-12T19:18:10.078Z,36.99
2023-05-12T19:23:12.234Z,37.43
2023-05-12T19:28:14.076Z,37.45
2023-05-12T19:33:17.334Z,37.74
2023-05-12T19:38:19.655Z,37.87
2023-05-12T19:43:21.736Z,38.02
2023-05-12T19:48:23.590Z,38.31
2023-05-12T19:53:25.661Z,38.38
2023-05-12T19:58:27.622Z,38.79
2023-05-12T20:03:29.848Z,38.95
2023-05-12T20:08:32.492Z,39.39
2023-05-12T20:13:34.431Z,39.58
2023-05-12T20:18:36.356Z,40.06
2023-05-12T20:23:38.336Z,40.22
2023-05-12T20:28:40.816Z,40.44
2023-05-12T20:33:42.753Z,40.56
2023-05-12T20:38:44.628Z,40.76
2023-05-12T20:43:46.538Z,41.02
2023-05-12T20:48:48.523Z,41.34
2023-05-12T20:53:50.710Z,41.41
2023-05-12T20:58:52.879Z,42.01
2023-05-12T21:03:54.746Z,42.21
2023-05-12T21:08:56.593Z,42.69
2023-05-12T21:13:58.476Z,42.74
2023-05-12T21:19:00.327Z,42.33
2023-05-12T21:24:02.215Z,42.32
2023-05-12T21:29:04.363Z,41.85
2023-05-12T21:34:06.159Z,41.83
2023-05-12T21:39:08.102Z,42.03
2023-05-12T21:44:11.192Z,41.77
2023-05-12T21:49:13.936Z,41.62
2023-05-12T21:54:15.831Z,42.10
2023-05-12T21:59:17.721Z,42.64
2023-05-12T22:04:19.994Z,42.53
2023-05-12T22:09:22.314Z,42.68
2023-05-12T22:14:24.473Z,42.40
2023-05-12T22:19:26.656Z,42.66
2023-05-12T22:24:28.576Z,42.70
2023-05-12T22:29:30.497Z,43.35
2023-05-12T22:34:32.356Z,43.75
2023-05-12T22:39:34.205Z,43.52
2023-05-12T22:44:36.061Z,43.83
2023-05-12T22:49:38.043Z,44.02
2023-05-12T22:54:39.891Z,43.95
2023-05-12T22:59:41.720Z,43.82
2023-05-12T23:04:44.049Z,43.74
2023-05-12T23:09:45.966Z,43.73
2023-05-12T23:14:47.935Z,43.60
2023-05-12T23:19:50.202Z,44.06
2023-05-12T23:24:52.704Z,44.34
2023-05-12T23:29:54.539Z,44.86
2023-05-12T23:34:56.545Z,45.45
2023-05-12T23:39:58.427Z,45.07
2023-05-12T23:45:00.314Z,45.03
2023-05-12T23:50:02.241Z,44.35
2023-05-12T23:55:04.328Z,44.21
